createdAt,value
2023-05-16T00:00:35.228Z,96524.31
2023-05-16T00:03:04.086Z,96528.81
2023-05-16T00:05:32.956Z,96524.00
2023-05-16T00:08:01.767Z,96521.25
2023-05-16T00:10:30.421Z,96521.06
2023-05-16T00:13:02.230Z,96530.38
2023-05-16T00:15:33.439Z,96519.34
2023-05-16T00:18:02.062Z,96520.63
2023-05-16T00:20:30.713Z,96515.75
2023-05-16T00:23:01.392Z,96512.03
2023-05-16T00:25:30.224Z,96516.53
2023-05-16T00:27:59.066Z,96514.44
2023-05-16T00:30:27.532Z,96516.56
2023-05-16T00:32:57.724Z,96510.34
2023-05-16T00:35:26.373Z,96515.66
2023-05-16T00:37:55.073Z,96515.81
2023-05-16T00:40:23.765Z,96514.53
2023-05-16T00:42:52.446Z,96517.09
2023-05-16T00:45:21.471Z,96505.66
2023-05-16T00:47:50.364Z,96510.94
2023-05-16T00:50:21.055Z,96505.00
2023-05-16T00:52:50.144Z,96502.69
2023-05-16T00:55:18.576Z,96501.44
2023-05-16T00:57:47.640Z,96506.38
2023-05-16T01:00:16.882Z,96507.16
2023-05-16T01:02:45.614Z,96509.41
2023-05-16T01:05:14.142Z,96512.81
2023-05-16T01:07:44.156Z,96510.00
2023-05-16T01:10:13.306Z,96512.22
2023-05-16T01:12:54.526Z,96506.22
2023-05-16T01:15:29.886Z,96511.03
2023-05-16T01:18:04.672Z,96503.84
2023-05-16T01:20:41.916Z,96496.50
2023-05-16T01:23:28.945Z,96493.97
2023-05-16T01:26:13.682Z,96492.09
2023-05-16T01:28:45.400Z,96494.63
2023-05-16T01:31:14.155Z,96493.19
2023-05-16T01:33:42.854Z,96491.91
2023-05-16T01:36:23.165Z,96499.16
2023-05-16T01:39:03.596Z,96496.94
2023-05-16T01:41:42.916Z,96489.28
2023-05-16T01:44:20.366Z,96494.69
2023-05-16T01:46:54.974Z,96489.94
2023-05-16T01:49:31.540Z,96486.22
2023-05-16T01:52:06.725Z,96485.28
2023-05-16T01:54:38.542Z,96496.84
2023-05-16T01:57:10.639Z,96490.78
2023-05-16T01:59:42.967Z,96495.09
2023-05-16T02:02:12.318Z,96490.59
2023-05-16T02:04:40.970Z,96500.03
2023-05-16T02:07:09.792Z,96502.63
2023-05-16T02:09:39.595Z,96499.56
2023-05-16T02:12:10.834Z,96496.06
2023-05-16T02:14:39.163Z,96494.56
2023-05-16T02:17:08.988Z,96495.00
2023-05-16T02:19:38.090Z,96487.63
2023-05-16T02:22:06.899Z,96485.91
2023-05-16T02:24:36.244Z,96480.59
2023-05-16T02:27:05.021Z,96477.72
2023-05-16T02:29:35.107Z,96478.69
2023-05-16T02:32:03.716Z,96479.63
2023-05-16T02:34:32.509Z,96475.72
2023-05-16T02:37:01.065Z,96477.03
2023-05-16T02:39:30.116Z,96485.72
2023-05-16T02:41:58.731Z,96476.84
2023-05-16T02:44:27.618Z,96479.50
2023-05-16T02:46:57.215Z,96479.16
2023-05-16T02:49:25.783Z,96486.03
2023-05-16T02:51:54.433Z,96485.09
2023-05-16T02:54:23.335Z,96489.63
2023-05-16T02:56:51.972Z,96487.88
2023-05-16T02:59:21.381Z,96492.53
2023-05-16T03:01:50.086Z,96491.09
2023-05-16T03:04:20.161Z,96495.09
2023-05-16T03:06:48.880Z,96494.13
2023-05-16T03:09:17.200Z,96489.00
2023-05-16T03:11:45.770Z,96497.72
2023-05-16T03:14:14.404Z,96491.28
2023-05-16T03:16:43.982Z,96494.34
2023-05-16T03:19:13.991Z,96484.91
2023-05-16T03:21:44.081Z,96485.38
2023-05-16T03:24:12.860Z,96494.22
2023-05-16T03:26:41.540Z,96489.53
2023-05-16T03:29:10.532Z,96498.81
2023-05-16T03:31:39.411Z,96497.72
2023-05-16T03:34:08.150Z,96504.41
2023-05-16T03:36:36.685Z,96508.75
2023-05-16T03:39:08.859Z,96507.00
2023-05-16T03:41:38.110Z,96507.16
2023-05-16T03:44:07.174Z,96503.78
2023-05-16T03:46:36.052Z,96514.34
2023-05-16T03:49:04.749Z,96515.38
2023-05-16T03:51:33.480Z,96512.66
2023-05-16T03:54:02.064Z,96510.38
2023-05-16T03:56:31.833Z,96518.41
2023-05-16T03:59:00.447Z,96525.44
2023-05-16T04:01:29.817Z,96518.69
2023-05-16T04:03:58.404Z,96520.75
2023-05-16T04:06:27.004Z,96520.75
2023-05-16T04:08:55.538Z,96528.16
2023-05-16T04:11:24.134Z,96520.63
2023-05-16T04:13:55.094Z,96516.72
2023-05-16T04:16:23.802Z,96507.69
2023-05-16T04:18:52.648Z,96506.50
2023-05-16T04:21:21.322Z,96508.91
2023-05-16T04:23:51.686Z,96510.00
2023-05-16T04:26:22.271Z,96513.03
2023-05-16T04:28:50.886Z,96510.69
2023-05-16T04:31:21.990Z,96514.25
2023-05-16T04:33:50.740Z,96504.88
2023-05-16T04:36:19.536Z,96511.44
2023-05-16T04:38:48.239Z,96513.31
2023-05-16T04:41:17.337Z,96502.84
2023-05-16T04:43:45.786Z,96507.44
2023-05-16T04:46:16.077Z,96497.25
2023-05-16T04:48:46.256Z,96493.88
2023-05-16T04:51:14.634Z,96497.72
2023-05-16T04:53:43.620Z,96508.19
2023-05-16T04:56:12.252Z,96505.47
2023-05-16T04:58:42.805Z,96505.78
2023-05-16T05:01:11.798Z,96506.03
2023-05-16T05:03:40.586Z,96506.56
2023-05-16T05:06:10.716Z,96502.28
2023-05-16T05:08:39.341Z,96511.00
2023-05-16T05:11:08.014Z,96508.81
2023-05-16T05:13:36.704Z,96504.84
2023-05-16T05:16:06.101Z,96507.25
2023-05-16T05:18:34.823Z,96520.03
2023-05-16T05:21:03.614Z,96519.41
2023-05-16T05:23:34.926Z,96521.50
2023-05-16T05:26:03.770Z,96516.38
2023-05-16T05:28:32.198Z,96521.97
2023-05-16T05:31:00.914Z,96511.50
2023-05-16T05:33:29.823Z,96518.31
2023-05-16T05:35:58.750Z,96519.59
2023-05-16T05:38:27.612Z,96523.31
2023-05-16T05:40:57.625Z,96530.16
2023-05-16T05:43:26.030Z,96529.28
2023-05-16T05:45:54.958Z,96527.06
2023-05-16T05:48:23.778Z,96523.78
2023-05-16T05:50:53.114Z,96531.88
2023-05-16T05:53:22.757Z,96525.97
2023-05-16T05:55:51.562Z,96528.59
2023-05-16T05:58:22.481Z,96529.03
2023-05-16T06:00:51.435Z,96530.59
2023-05-16T06:03:21.323Z,96522.34
2023-05-16T06:05:50.166Z,96525.53
2023-05-16T06:08:19.268Z,96520.81
2023-05-16T06:10:48.317Z,96525.59
2023-05-16T06:13:17.008Z,96525.19
2023-05-16T06:15:51.438Z,96530.09
2023-05-16T06:18:19.983Z,96528.19
2023-05-16T06:20:49.089Z,96529.91
2023-05-16T06:23:19.285Z,96534.97
2023-05-16T06:25:49.827Z,96529.78
2023-05-16T06:28:18.495Z,96546.72
2023-05-16T06:30:48.195Z,96542.69
2023-05-16T06:33:16.957Z,96535.72
2023-05-16T06:35:45.918Z,96529.72
2023-05-16T06:38:14.796Z,96523.47
2023-05-16T06:40:43.728Z,96527.03
2023-05-16T06:43:13.076Z,96525.84
2023-05-16T06:45:41.813Z,96529.31
2023-05-16T06:48:11.649Z,96527.09
2023-05-16T06:50:40.361Z,96530.22
2023-05-16T06:53:09.109Z,96531.19
2023-05-16T06:55:37.841Z,96523.59
2023-05-16T06:58:06.738Z,96527.41
2023-05-16T07:00:35.441Z,96535.88
2023-05-16T07:03:04.162Z,96535.50
2023-05-16T07:05:34.566Z,96535.91
2023-05-16T07:08:04.586Z,96535.13
2023-05-16T07:10:33.955Z,96539.41
2023-05-16T07:13:03.165Z,96532.00
2023-05-16T07:15:32.090Z,96530.72
2023-05-16T07:18:01.021Z,96541.88
2023-05-16T07:20:29.677Z,96532.66
2023-05-16T07:22:59.838Z,96538.59
2023-05-16T07:25:28.625Z,96542.06
2023-05-16T07:27:57.424Z,96546.88
2023-05-16T07:30:26.312Z,96544.09
2023-05-16T07:32:55.389Z,96548.97
2023-05-16T07:35:24.149Z,96550.72
2023-05-16T07:37:52.775Z,96551.06
2023-05-16T07:40:25.914Z,96548.75
2023-05-16T07:42:54.470Z,96545.09
2023-05-16T07:45:23.380Z,96538.88
2023-05-16T07:47:52.102Z,96545.31
2023-05-16T07:50:20.839Z,96542.75
2023-05-16T07:52:49.236Z,96543.84
2023-05-16T07:55:18.003Z,96541.41
2023-05-16T07:57:47.805Z,96530.25
2023-05-16T08:00:18.127Z,96533.31
2023-05-16T08:02:47.029Z,96541.06
2023-05-16T08:05:16.441Z,96539.38
2023-05-16T08:07:45.743Z,96538.81
2023-05-16T08:10:14.401Z,96540.97
2023-05-16T08:12:43.038Z,96532.56
2023-05-16T08:15:13.528Z,96533.94
2023-05-16T08:17:42.417Z,96533.59
2023-05-16T08:20:12.200Z,96536.13
2023-05-16T08:22:40.908Z,96541.25
2023-05-16T08:25:09.991Z,96551.41
2023-05-16T08:27:38.309Z,96545.72
2023-05-16T08:30:08.809Z,96555.16
2023-05-16T08:32:38.670Z,96554.63
2023-05-16T08:35:08.320Z,96560.13
2023-05-16T08:37:36.970Z,96560.66
2023-05-16T08:40:08.423Z,96553.31
2023-05-16T08:42:38.066Z,96556.72
2023-05-16T08:45:08.637Z,96559.63
2023-05-16T08:47:41.580Z,96558.47
2023-05-16T08:50:11.832Z,96571.81
2023-05-16T08:52:42.869Z,96565.03
2023-05-16T08:55:12.624Z,96582.41
2023-05-16T08:57:42.290Z,96578.16
2023-05-16T09:00:13.924Z,96582.16
2023-05-16T09:02:45.047Z,96578.16
2023-05-16T09:05:15.045Z,96572.16
2023-05-16T09:07:44.586Z,96572.97
2023-05-16T09:10:14.251Z,96565.78
2023-05-16T09:12:43.543Z,96565.66
2023-05-16T09:15:12.720Z,96571.66
2023-05-16T09:17:45.164Z,96570.38
2023-05-16T09:20:15.662Z,96560.91
2023-05-16T09:22:53.743Z,96566.50
2023-05-16T09:27:56.726Z,96555.84
2023-05-16T09:30:30.518Z,96556.78
2023-05-16T09:33:01.352Z,96549.72
2023-05-16T09:38:01.323Z,96558.75
2023-05-16T09:40:29.989Z,96555.97
2023-05-16T09:43:07.832Z,96553.81
2023-05-16T09:45:37.716Z,96553.91
2023-05-16T09:48:09.689Z,96556.47
2023-05-16T09:50:40.100Z,96565.09
2023-05-16T09:53:08.437Z,96557.47
2023-05-16T09:55:37.289Z,96549.78
2023-05-16T09:58:05.992Z,96543.00
2023-05-16T10:00:35.735Z,96552.63
2023-05-16T10:03:06.061Z,96541.22
2023-05-16T10:05:37.778Z,96539.38
2023-05-16T10:08:07.590Z,96540.41
2023-05-16T10:10:40.880Z,96546.06
2023-05-16T10:13:12.769Z,96539.72
2023-05-16T10:15:42.474Z,96540.50
2023-05-16T10:18:13.640Z,96527.25
2023-05-16T10:20:50.226Z,96526.13
2023-05-16T10:23:21.308Z,96518.78
2023-05-16T10:25:50.805Z,96525.34
2023-05-16T10:28:19.515Z,96526.50
2023-05-16T10:30:48.728Z,96529.56
2023-05-16T10:33:20.177Z,96517.31
2023-05-16T10:35:50.838Z,96523.66
2023-05-16T10:38:20.646Z,96525.81
2023-05-16T10:40:50.452Z,96524.00
2023-05-16T10:43:26.753Z,96529.28
2023-05-16T10:45:59.606Z,96524.38
2023-05-16T10:48:32.948Z,96523.34
2023-05-16T10:51:04.279Z,96524.66
2023-05-16T10:53:35.173Z,96528.56
2023-05-16T10:56:12.884Z,96515.41
2023-05-16T10:58:43.692Z,96525.31
2023-05-16T11:01:21.628Z,96536.47
2023-05-16T11:04:11.092Z,96530.94
2023-05-16T11:06:56.681Z,96524.72
2023-05-16T11:09:28.266Z,96525.06
2023-05-16T11:12:03.958Z,96529.16
2023-05-16T11:14:39.357Z,96527.56
2023-05-16T11:17:14.328Z,96535.94
2023-05-16T11:19:45.388Z,96528.47
2023-05-16T11:22:24.749Z,96528.56
2023-05-16T11:24:58.992Z,96540.53
2023-05-16T11:27:30.216Z,96525.41
2023-05-16T11:30:03.522Z,96531.34
2023-05-16T11:32:35.656Z,96532.25
2023-05-16T11:35:05.208Z,96536.41
2023-05-16T11:37:36.505Z,96521.69
2023-05-16T11:40:08.987Z,96535.22
2023-05-16T11:42:39.365Z,96535.59
2023-05-16T11:45:09.827Z,96532.97
2023-05-16T11:47:40.014Z,96534.47
2023-05-16T11:50:15.204Z,96524.72
2023-05-16T11:52:48.203Z,96534.94
2023-05-16T11:55:32.384Z,96537.97
2023-05-16T11:58:08.030Z,96529.91
2023-05-16T12:00:37.075Z,96541.13
2023-05-16T12:03:08.235Z,96552.88
2023-05-16T12:05:37.118Z,96541.59
2023-05-16T12:08:07.287Z,96541.78
2023-05-16T12:10:38.658Z,96551.72
2023-05-16T12:13:07.556Z,96550.03
2023-05-16T12:15:36.937Z,96558.03
2023-05-16T12:18:05.725Z,96556.53
2023-05-16T12:20:34.526Z,96561.97
2023-05-16T12:23:04.618Z,96557.03
2023-05-16T12:25:36.427Z,96553.00
2023-05-16T12:28:07.861Z,96555.47
2023-05-16T12:30:36.701Z,96560.59
2023-05-16T12:33:13.509Z,96559.31
2023-05-16T12:35:44.889Z,96558.31
2023-05-16T12:38:16.038Z,96564.63
2023-05-16T12:40:46.559Z,96569.53
2023-05-16T12:43:16.542Z,96572.16
2023-05-16T12:45:50.945Z,96582.88
2023-05-16T12:48:20.013Z,96587.53
2023-05-16T12:50:51.739Z,96594.38
2023-05-16T12:53:21.058Z,96592.44
2023-05-16T12:55:51.091Z,96585.66
2023-05-16T12:58:19.902Z,96587.94
2023-05-16T13:00:48.681Z,96589.69
2023-05-16T13:03:17.671Z,96595.53
2023-05-16T13:05:46.753Z,96588.72
2023-05-16T13:08:15.425Z,96608.03
2023-05-16T13:10:44.002Z,96599.69
2023-05-16T13:13:21.991Z,96593.94
2023-05-16T13:15:57.346Z,96596.31
2023-05-16T13:18:26.127Z,96597.94
2023-05-16T13:20:54.761Z,96592.09
2023-05-16T13:23:23.663Z,96606.78
2023-05-16T13:25:53.044Z,96606.69
2023-05-16T13:28:22.975Z,96609.34
2023-05-16T13:30:51.791Z,96609.34
2023-05-16T13:33:20.492Z,96609.72
2023-05-16T13:35:49.580Z,96622.03
2023-05-16T13:38:19.057Z,96619.81
2023-05-16T13:40:47.734Z,96621.13
2023-05-16T13:43:16.423Z,96617.94
2023-05-16T13:45:46.192Z,96620.88
2023-05-16T13:48:14.867Z,96618.38
2023-05-16T13:50:44.249Z,96615.91
2023-05-16T13:53:13.045Z,96622.72
2023-05-16T13:55:41.707Z,96626.91
2023-05-16T13:58:10.421Z,96628.84
2023-05-16T14:00:45.296Z,96624.44
2023-05-16T14:03:16.209Z,96611.75
2023-05-16T14:05:45.217Z,96618.91
2023-05-16T14:08:14.577Z,96614.38
2023-05-16T14:10:43.210Z,96617.88
2023-05-16T14:13:12.506Z,96618.81
2023-05-16T14:15:41.262Z,96611.75
2023-05-16T14:18:09.741Z,96612.28
2023-05-16T14:20:39.487Z,96619.19
2023-05-16T14:23:08.108Z,96619.38
2023-05-16T14:25:36.766Z,96622.47
2023-05-16T14:28:05.748Z,96617.66
2023-05-16T14:30:34.385Z,96605.56
2023-05-16T14:33:03.833Z,96611.13
2023-05-16T14:35:32.505Z,96612.44
2023-05-16T14:38:02.471Z,96608.00
2023-05-16T14:40:30.981Z,96610.38
2023-05-16T14:42:59.707Z,96609.00
2023-05-16T14:45:28.744Z,96612.53
2023-05-16T14:47:57.715Z,96619.13
2023-05-16T14:50:29.878Z,96611.38
2023-05-16T14:52:58.531Z,96612.19
2023-05-16T14:55:28.780Z,96611.84
2023-05-16T14:57:59.996Z,96608.19
2023-05-16T15:00:29.258Z,96615.50
2023-05-16T15:02:58.109Z,96620.38
2023-05-16T15:05:26.931Z,96619.25
2023-05-16T15:07:55.758Z,96620.66
2023-05-16T15:10:24.483Z,96617.63
2023-05-16T15:12:54.620Z,96626.78
2023-05-16T15:15:24.069Z,96622.38
2023-05-16T15:17:53.843Z,96625.50
2023-05-16T15:20:23.512Z,96625.75
2023-05-16T15:22:52.120Z,96621.13
2023-05-16T15:25:20.808Z,96618.91
2023-05-16T15:27:49.456Z,96620.91
2023-05-16T15:30:19.480Z,96624.72
2023-05-16T15:32:48.155Z,96629.81
2023-05-16T15:35:17.211Z,96628.13
2023-05-16T15:37:45.856Z,96625.81
2023-05-16T15:40:15.639Z,96625.81
2023-05-16T15:42:44.978Z,96623.88
2023-05-16T15:45:14.628Z,96636.41
2023-05-16T15:47:44.370Z,96634.53
2023-05-16T15:50:13.573Z,96641.59
2023-05-16T15:52:44.506Z,96636.91
2023-05-16T15:55:13.188Z,96630.59
2023-05-16T15:57:42.159Z,96635.94
2023-05-16T16:00:11.799Z,96637.34
2023-05-16T16:02:42.156Z,96639.81
2023-05-16T16:05:12.406Z,96646.47
2023-05-16T16:07:41.024Z,96642.41
2023-05-16T16:10:10.719Z,96645.31
2023-05-16T16:12:39.426Z,96650.28
2023-05-16T16:15:10.585Z,96643.47
2023-05-16T16:17:39.952Z,96651.41
2023-05-16T16:20:09.611Z,96654.44
2023-05-16T16:22:39.729Z,96673.34
2023-05-16T16:25:09.537Z,96656.94
2023-05-16T16:27:38.316Z,96671.56
2023-05-16T16:30:08.651Z,96673.34
2023-05-16T16:32:37.748Z,96676.91
2023-05-16T16:35:07.788Z,96679.31
2023-05-16T16:37:38.243Z,96683.44
2023-05-16T16:40:11.193Z,96693.91
2023-05-16T16:42:40.568Z,96696.75
2023-05-16T16:45:10.727Z,96707.50
2023-05-16T16:47:40.382Z,96708.44
2023-05-16T16:50:10.870Z,96712.00
2023-05-16T16:52:40.544Z,96721.78
2023-05-16T16:55:09.785Z,96721.81
2023-05-16T16:57:38.540Z,96736.56
2023-05-16T17:00:09.025Z,96730.41
2023-05-16T17:02:37.864Z,96740.63
2023-05-16T17:05:08.778Z,96739.72
2023-05-16T17:07:37.123Z,96741.88
2023-05-16T17:10:08.352Z,96758.34
2023-05-16T17:12:44.489Z,96750.78
2023-05-16T17:15:13.259Z,96767.69
2023-05-16T17:17:43.675Z,96761.66
2023-05-16T17:20:13.180Z,96773.53
2023-05-16T17:22:42.604Z,96785.50
2023-05-16T17:25:13.836Z,96787.00
2023-05-16T17:27:43.264Z,96787.22
2023-05-16T17:30:13.109Z,96782.44
2023-05-16T17:32:41.840Z,96788.03
2023-05-16T17:35:10.958Z,96787.34
2023-05-16T17:37:39.802Z,96788.78
2023-05-16T17:40:11.964Z,96790.38
2023-05-16T17:42:41.586Z,96801.72
2023-05-16T17:45:12.585Z,96786.97
2023-05-16T17:47:41.646Z,96784.81
2023-05-16T17:50:11.485Z,96798.53
2023-05-16T17:52:40.548Z,96793.81
2023-05-16T17:55:11.086Z,96795.06
2023-05-16T17:57:41.317Z,96796.06
2023-05-16T18:00:11.487Z,96795.41
2023-05-16T18:02:40.442Z,96790.38
2023-05-16T18:05:10.311Z,96795.63
2023-05-16T18:07:39.031Z,96800.44
2023-05-16T18:10:09.099Z,96797.09
2023-05-16T18:12:38.863Z,96804.19
2023-05-16T18:15:11.805Z,96809.75
2023-05-16T18:17:40.627Z,96817.50
2023-05-16T18:20:13.248Z,96809.28
2023-05-16T18:22:42.824Z,96813.38
2023-05-16T18:25:12.552Z,96818.81
2023-05-16T18:27:41.772Z,96825.81
2023-05-16T18:30:13.559Z,96832.28
2023-05-16T18:32:42.385Z,96841.50
2023-05-16T18:35:11.343Z,96840.19
2023-05-16T18:37:41.011Z,96845.28
2023-05-16T18:40:12.371Z,96840.06
2023-05-16T18:42:41.041Z,96846.22
2023-05-16T18:45:12.559Z,96847.53
2023-05-16T18:47:41.418Z,96856.78
2023-05-16T18:50:10.953Z,96857.03
2023-05-16T18:52:40.892Z,96861.56
2023-05-16T18:55:11.439Z,96854.84
2023-05-16T18:57:40.306Z,96852.59
2023-05-16T19:00:12.801Z,96854.47
2023-05-16T19:02:42.813Z,96855.59
2023-05-16T19:05:12.012Z,96876.53
2023-05-16T19:07:40.785Z,96858.19
2023-05-16T19:10:10.416Z,96858.19
2023-05-16T19:12:39.015Z,96868.38
2023-05-16T19:15:09.110Z,96878.69
2023-05-16T19:17:41.623Z,96877.03
2023-05-16T19:20:11.811Z,96879.16
2023-05-16T19:22:40.620Z,96877.09
2023-05-16T19:25:10.084Z,96890.25
2023-05-16T19:27:38.752Z,96894.59
2023-05-16T19:30:08.720Z,96905.53
2023-05-16T19:32:38.462Z,96906.56
2023-05-16T19:35:07.976Z,96904.28
2023-05-16T19:37:37.142Z,96909.47
2023-05-16T19:40:06.231Z,96913.38
2023-05-16T19:42:34.855Z,96917.06
2023-05-16T19:45:03.491Z,96915.00
2023-05-16T19:47:32.378Z,96928.34
2023-05-16T19:50:02.525Z,96913.41
2023-05-16T19:52:31.228Z,96923.84
2023-05-16T19:54:59.956Z,96925.78
2023-05-16T19:57:28.648Z,96932.22
2023-05-16T19:59:57.305Z,96935.13
2023-05-16T20:02:26.315Z,96944.44
2023-05-16T20:04:55.169Z,96939.16
2023-05-16T20:07:25.536Z,96932.53
2023-05-16T20:09:54.820Z,96937.69
2023-05-16T20:12:23.532Z,96939.16
2023-05-16T20:14:52.748Z,96930.47
2023-05-16T20:17:21.542Z,96945.56
2023-05-16T20:19:50.372Z,96950.38
2023-05-16T20:22:19.928Z,96957.94
2023-05-16T20:24:51.398Z,96956.47
2023-05-16T20:27:21.714Z,96959.38
2023-05-16T20:29:52.306Z,96960.34
2023-05-16T20:32:21.565Z,96966.28
2023-05-16T20:34:50.214Z,96959.38
2023-05-16T20:37:18.588Z,96960.00
2023-05-16T20:39:47.196Z,96958.41
2023-05-16T20:42:17.295Z,96956.97
2023-05-16T20:44:46.045Z,96960.00
2023-05-16T20:47:14.754Z,96960.66
2023-05-16T20:49:43.420Z,96959.53
2023-05-16T20:52:12.310Z,96961.31
2023-05-16T20:54:41.862Z,96960.66
2023-05-16T20:57:10.833Z,96954.72
2023-05-16T20:59:41.070Z,96961.59
2023-05-16T21:02:10.288Z,96961.91
2023-05-16T21:04:39.569Z,96968.16
2023-05-16T21:07:08.805Z,96972.81
2023-05-16T21:09:38.003Z,96979.09
2023-05-16T21:12:07.912Z,96980.72
2023-05-16T21:14:36.593Z,96978.13
2023-05-16T21:17:06.786Z,96982.13
2023-05-16T21:19:35.558Z,96982.94
2023-05-16T21:22:04.366Z,96980.66
2023-05-16T21:24:35.375Z,96990.78
2023-05-16T21:27:04.747Z,96988.03
2023-05-16T21:29:33.462Z,96991.25
2023-05-16T21:32:02.266Z,97000.03
2023-05-16T21:34:32.405Z,96991.19
2023-05-16T21:37:01.256Z,97002.13
2023-05-16T21:39:29.894Z,96998.41
2023-05-16T21:41:58.200Z,97007.53
2023-05-16T21:44:26.895Z,97009.28
2023-05-16T21:46:55.497Z,97008.81
2023-05-16T21:49:24.244Z,97009.13
2023-05-16T21:51:54.232Z,97016.47
2023-05-16T21:54:22.867Z,97008.91
2023-05-16T21:56:51.556Z,97018.41
2023-05-16T21:59:20.072Z,97015.84
2023-05-16T22:01:48.692Z,97026.41
2023-05-16T22:04:17.364Z,97025.09
2023-05-16T22:06:46.365Z,97029.78
2023-05-16T22:09:16.454Z,97033.13
2023-05-16T22:11:45.276Z,97037.16
2023-05-16T22:14:13.560Z,97036.84
2023-05-16T22:16:41.970Z,97037.25
2023-05-16T22:19:10.728Z,97043.84
2023-05-16T22:21:39.367Z,97046.28
2023-05-16T22:24:08.500Z,97039.44
2023-05-16T22:26:38.220Z,97052.22
2023-05-16T22:29:06.894Z,97052.69
2023-05-16T22:31:35.545Z,97055.41
2023-05-16T22:34:04.309Z,97054.44
2023-05-16T22:36:32.984Z,97055.88
2023-05-16T22:39:01.561Z,97053.84
2023-05-16T22:41:30.586Z,97060.53
2023-05-16T22:44:01.513Z,97060.97
2023-05-16T22:46:30.153Z,97057.94
2023-05-16T22:48:58.899Z,97054.53
2023-05-16T22:51:27.329Z,97063.31
2023-05-16T22:53:56.061Z,97056.06
2023-05-16T22:56:24.675Z,97061.03
2023-05-16T22:58:53.551Z,97069.81
2023-05-16T23:01:23.546Z,97067.41
2023-05-16T23:03:51.961Z,97074.78
2023-05-16T23:06:20.658Z,97064.91
2023-05-16T23:08:49.370Z,97068.72
2023-05-16T23:11:19.732Z,97078.00
2023-05-16T23:13:48.431Z,97082.00
2023-05-16T23:16:17.216Z,97082.47
2023-05-16T23:18:46.975Z,97087.94
2023-05-16T23:21:15.812Z,97087.81
2023-05-16T23:23:44.993Z,97081.28
2023-05-16T23:26:13.376Z,97088.28
2023-05-16T23:28:42.025Z,97093.63
2023-05-16T23:31:10.642Z,97092.66
2023-05-16T23:33:40.104Z,97090.41
2023-05-16T23:36:10.580Z,97103.47
2023-05-16T23:38:39.198Z,97096.72
2023-05-16T23:41:07.810Z,97093.38
2023-05-16T23:43:36.422Z,97093.88
2023-05-16T23:46:05.084Z,97096.41
2023-05-16T23:48:36.105Z,97096.91
2023-05-16T23:51:07.544Z,97092.91
2023-05-16T23:53:38.087Z,97091.91
2023-05-16T23:56:06.719Z,97091.75
2023-05-16T23:58:35.477Z,97099.31
